createdAt,value
2022-10-18T00:01:29.725Z,1026.71
2022-10-18T00:06:22.499Z,1026.69
2022-10-18T00:11:15.332Z,1026.74
2022-10-18T00:16:08.057Z,1026.76
2022-10-18T00:21:00.684Z,1026.74
2022-10-18T00:25:52.815Z,1026.79
2022-10-18T00:30:45.524Z,1026.77
2022-10-18T00:35:38.011Z,1026.89
2022-10-18T00:40:30.817Z,1026.79
2022-10-18T00:45:23.644Z,1026.79
2022-10-18T00:50:16.252Z,1026.82
2022-10-18T00:55:08.957Z,1026.8
2022-10-18T01:00:03.318Z,1026.79
2022-10-18T01:04:55.659Z,1026.8
2022-10-18T01:09:48.215Z,1026.87
2022-10-18T01:14:40.745Z,1026.94
2022-10-18T01:19:33.420Z,1026.97
2022-10-18T01:24:26.080Z,1026.92
2022-10-18T01:29:18.686Z,1026.88
2022-10-18T01:34:11.261Z,1026.89
2022-10-18T01:39:03.949Z,1026.89
2022-10-18T01:43:56.627Z,1026.86
2022-10-18T01:48:49.116Z,1026.85
2022-10-18T01:53:41.729Z,1026.86
2022-10-18T01:58:34.359Z,1026.93
2022-10-18T02:03:26.989Z,1026.94
2022-10-18T02:08:23.047Z,1026.98
2022-10-18T02:13:12.504Z,1026.99
2022-10-18T02:18:04.835Z,1026.93
2022-10-18T02:22:57.536Z,1026.98
2022-10-18T02:27:50.107Z,1027
2022-10-18T02:32:42.659Z,1027.05
2022-10-18T02:37:35.258Z,1027.1
2022-10-18T02:42:27.564Z,1027.1
2022-10-18T02:47:20.244Z,1027.13
2022-10-18T02:52:12.965Z,1027.05
2022-10-18T02:57:05.615Z,1026.94
2022-10-18T03:01:58.202Z,1026.89
2022-10-18T03:06:50.841Z,1026.82
2022-10-18T03:11:43.679Z,1026.76
2022-10-18T03:16:36.321Z,1026.68
2022-10-18T03:21:28.943Z,1026.67
2022-10-18T03:26:21.428Z,1026.77
2022-10-18T03:31:14.164Z,1026.8
2022-10-18T03:36:06.685Z,1026.83
2022-10-18T03:40:59.311Z,1026.77
2022-10-18T03:45:51.921Z,1026.84
2022-10-18T03:50:44.492Z,1026.78
2022-10-18T03:55:37.243Z,1026.74
2022-10-18T04:00:29.734Z,1026.79
2022-10-18T04:05:22.417Z,1026.8
2022-10-18T04:10:15.011Z,1026.79
2022-10-18T04:15:07.891Z,1026.76
2022-10-18T04:20:00.575Z,1026.65
2022-10-18T04:24:53.242Z,1026.51
2022-10-18T04:29:46.071Z,1026.49
2022-10-18T04:34:38.798Z,1026.63
2022-10-18T04:39:31.241Z,1026.61
2022-10-18T04:44:23.916Z,1026.53
2022-10-18T04:49:16.986Z,1026.51
2022-10-18T04:54:09.699Z,1026.39
2022-10-18T04:59:02.493Z,1026.42
2022-10-18T05:03:55.326Z,1026.38
2022-10-18T05:08:48.080Z,1026.34
2022-10-18T05:13:40.922Z,1026.3
2022-10-18T05:18:33.578Z,1026.26
2022-10-18T05:23:26.175Z,1026.14
2022-10-18T05:28:38.532Z,1026.04
2022-10-18T05:38:04.258Z,1025.97
2022-10-18T05:47:50.016Z,1025.88
2022-10-18T05:57:35.530Z,1025.76
2022-10-18T06:07:20.045Z,1025.96
2022-10-18T06:12:12.582Z,1025.99
2022-10-18T06:17:05.053Z,1026
2022-10-18T06:21:57.669Z,1026.26
2022-10-18T06:26:50.352Z,1026.27
2022-10-18T06:31:43.061Z,1026.19
2022-10-18T06:36:35.628Z,1025.98
2022-10-18T06:41:28.352Z,1025.92
2022-10-18T06:46:20.975Z,1025.78
2022-10-18T06:51:13.566Z,1025.7
2022-10-18T06:56:06.280Z,1025.6
2022-10-18T07:00:59.111Z,1025.41
2022-10-18T07:05:51.636Z,1025.31
2022-10-18T07:10:44.243Z,1025.79
2022-10-18T07:15:36.968Z,1026.22
2022-10-18T07:20:29.653Z,1026
2022-10-18T07:25:23.196Z,1025.93
2022-10-18T07:30:15.059Z,1026.07
2022-10-18T07:35:07.682Z,1026.11
2022-10-18T07:40:00.399Z,1026.05
2022-10-18T07:44:52.967Z,1026.03
2022-10-18T07:49:45.606Z,1026.46
2022-10-18T07:54:38.281Z,1026.46
2022-10-18T07:59:30.918Z,1026.43
2022-10-18T08:04:23.902Z,1026.37
2022-10-18T08:09:16.768Z,1026.58
2022-10-18T08:14:09.386Z,1026.51
2022-10-18T08:19:02.128Z,1026.02
2022-10-18T08:23:54.190Z,1026.14
2022-10-18T08:28:53.451Z,1026.2
2022-10-18T08:33:39.628Z,1026.15
2022-10-18T08:38:32.312Z,1026.16
2022-10-18T08:43:25.069Z,1026.29
2022-10-18T08:48:17.877Z,1026.42
2022-10-18T08:53:10.565Z,1026.5
2022-10-18T08:58:03.177Z,1026.59
2022-10-18T09:02:55.443Z,1026.65
2022-10-18T09:07:47.692Z,1026.71
2022-10-18T09:12:40.276Z,1026.72
2022-10-18T09:17:32.835Z,1026.63
2022-10-18T09:22:25.432Z,1026.63
2022-10-18T09:27:18.081Z,1026.62
2022-10-18T09:32:10.610Z,1026.76
2022-10-18T09:37:03.329Z,1026.83
2022-10-18T09:41:56.058Z,1026.8
2022-10-18T09:46:48.816Z,1026.68
2022-10-18T09:51:41.491Z,1026.78
2022-10-18T09:56:37.893Z,1026.87
2022-10-18T10:01:26.817Z,1026.9
2022-10-18T10:06:19.548Z,1027
2022-10-18T10:11:12.128Z,1027.09
2022-10-18T10:16:04.815Z,1026.98
2022-10-18T10:20:57.519Z,1027.07
2022-10-18T10:25:50.291Z,1027.01
2022-10-18T10:30:42.658Z,1027.04
2022-10-18T10:35:53.349Z,1027.14
2022-10-18T10:40:28.746Z,1027.15
2022-10-18T10:45:20.617Z,1027.16
2022-10-18T10:50:13.804Z,1027.15
2022-10-18T10:55:23.497Z,1027.22
2022-10-18T10:59:58.820Z,1027.24
2022-10-18T11:04:51.571Z,1027.2
2022-10-18T11:09:44.400Z,1027.16
2022-10-18T11:14:36.890Z,1027.17
2022-10-18T11:19:29.645Z,1027.15
2022-10-18T11:24:22.375Z,1027.14
2022-10-18T11:34:09.477Z,1027.15
2022-10-18T11:44:02.080Z,1027.15
2022-10-18T11:53:37.811Z,1027.22
2022-10-18T12:03:23.329Z,1027.19
2022-10-18T12:08:16.053Z,1027.23
2022-10-18T12:13:08.486Z,1027.23
2022-10-18T12:18:01.259Z,1027.15
2022-10-18T12:22:53.983Z,1027.16
2022-10-18T12:27:46.648Z,1027.14
2022-10-18T12:32:39.403Z,1027.05
2022-10-18T12:37:32.430Z,1027.04
2022-10-18T12:42:24.769Z,1027.02
2022-10-18T12:47:17.307Z,1027.1
2022-10-18T12:52:09.874Z,1027.1
2022-10-18T12:57:02.333Z,1027.15
2022-10-18T13:01:55.210Z,1027.17
2022-10-18T13:06:47.770Z,1027.11
2022-10-18T13:11:40.412Z,1027.12
2022-10-18T13:16:33.107Z,1027.11
2022-10-18T13:21:25.786Z,1027.2
2022-10-18T13:26:18.316Z,1027.13
2022-10-18T13:31:10.986Z,1027.14
2022-10-18T13:36:03.535Z,1027.14
2022-10-18T13:40:56.471Z,1027.17
2022-10-18T13:45:49.155Z,1027.22
2022-10-18T13:50:41.766Z,1027.33
2022-10-18T13:55:34.342Z,1027.36
2022-10-18T14:00:27.009Z,1027.29
2022-10-18T14:05:24.421Z,1027.2
2022-10-18T14:10:07.651Z,1027.23
2022-10-18T14:15:01.478Z,1027.3
2022-10-18T14:19:54.111Z,1027.42
2022-10-18T14:24:40.792Z,1027.38
2022-10-18T14:29:36.046Z,1027.42
2022-10-18T14:34:23.178Z,1027.41
2022-10-18T14:39:17.165Z,1027.44
2022-10-18T14:44:10.500Z,1027.46
2022-10-18T14:49:05.305Z,1027.48
2022-10-18T14:53:57.652Z,1027.43
2022-10-18T14:58:50.409Z,1027.45
2022-10-18T15:03:42.967Z,1027.52
2022-10-18T15:08:35.519Z,1027.52
2022-10-18T15:13:22.420Z,1027.59
2022-10-18T15:18:16.051Z,1027.56
2022-10-18T15:23:09.579Z,1027.56
2022-10-18T15:28:02.238Z,1027.59
2022-10-18T15:32:56.934Z,1027.57
2022-10-18T15:37:49.222Z,1027.59
2022-10-18T15:42:42.192Z,1027.58
2022-10-18T15:47:34.945Z,1027.58
2022-10-18T15:52:21.902Z,1027.67
2022-10-18T15:57:15.432Z,1027.65
2022-10-18T16:02:09.263Z,1027.69
2022-10-18T16:07:02.172Z,1027.64
2022-10-18T16:11:57.155Z,1027.7
2022-10-18T16:16:47.913Z,1027.71
2022-10-18T16:21:40.521Z,1027.72
2022-10-18T16:26:33.384Z,1027.85
2022-10-18T16:31:26.132Z,1027.85
2022-10-18T16:36:18.436Z,1027.95
2022-10-18T16:41:11.177Z,1027.96
2022-10-18T16:46:03.777Z,1027.96
2022-10-18T16:50:56.371Z,1027.94
2022-10-18T16:55:49.006Z,1028
2022-10-18T17:00:41.663Z,1028.07
2022-10-18T17:05:28.500Z,1028.11
2022-10-18T17:10:22.188Z,1028.14
2022-10-18T17:15:15.861Z,1028.25
2022-10-18T17:20:08.589Z,1028.33
2022-10-18T17:25:01.294Z,1028.35
2022-10-18T17:29:53.757Z,1028.36
2022-10-18T17:34:46.096Z,1028.38
2022-10-18T17:39:38.686Z,1028.38
2022-10-18T17:44:25.517Z,1028.35
2022-10-18T17:49:19.216Z,1028.33
2022-10-18T17:59:05.467Z,1028.31
2022-10-18T18:08:50.804Z,1028.4
2022-10-18T18:13:43.550Z,1028.3
2022-10-18T18:18:36.365Z,1028.29
2022-10-18T18:23:29.135Z,1028.27
2022-10-18T18:28:23.903Z,1028.28
2022-10-18T18:33:16.368Z,1028.31
2022-10-18T18:38:08.754Z,1028.31
2022-10-18T18:43:12.221Z,1028.23
2022-10-18T18:47:54.240Z,1028.24
2022-10-18T18:52:46.905Z,1028.28
2022-10-18T18:57:39.233Z,1028.28
2022-10-18T19:02:31.787Z,1028.28
2022-10-18T19:07:24.420Z,1028.3
2022-10-18T19:12:19.112Z,1028.29
2022-10-18T19:17:09.807Z,1028.34
2022-10-18T19:22:02.306Z,1028.39
2022-10-18T19:26:54.914Z,1028.37
2022-10-18T19:31:47.542Z,1028.38
2022-10-18T19:36:40.166Z,1028.48
2022-10-18T19:41:32.931Z,1028.5
2022-10-18T19:46:25.972Z,1028.59
2022-10-18T19:51:20.965Z,1028.61
2022-10-18T19:56:11.586Z,1028.61
2022-10-18T20:01:04.365Z,1028.7
2022-10-18T20:05:56.933Z,1028.73
2022-10-18T20:10:49.601Z,1028.78
2022-10-18T20:15:42.151Z,1028.78
2022-10-18T20:20:34.798Z,1028.76
2022-10-18T20:25:21.808Z,1028.71
2022-10-18T20:30:15.332Z,1028.61
2022-10-18T20:35:09.179Z,1028.63
2022-10-18T20:40:03.800Z,1028.61
2022-10-18T20:44:50.433Z,1028.68
2022-10-18T20:49:43.943Z,1028.69
2022-10-18T20:54:37.625Z,1028.66
2022-10-18T20:59:30.135Z,1028.72
2022-10-18T21:04:22.564Z,1028.83
2022-10-18T21:09:15.272Z,1028.74
2022-10-18T21:14:08.018Z,1028.71
2022-10-18T21:19:00.186Z,1028.71
2022-10-18T21:23:52.680Z,1028.77
2022-10-18T21:28:45.483Z,1028.85
2022-10-18T21:33:38.029Z,1028.88
2022-10-18T21:38:30.554Z,1028.9
2022-10-18T21:43:25.216Z,1028.89
2022-10-18T21:48:17.274Z,1028.91
2022-10-18T21:53:09.887Z,1028.91
2022-10-18T21:58:02.457Z,1028.93
2022-10-18T22:02:55.303Z,1028.95
2022-10-18T22:07:47.811Z,1028.96
2022-10-18T22:12:40.932Z,1028.95
2022-10-18T22:17:33.650Z,1028.94
2022-10-18T22:22:26.158Z,1028.95
2022-10-18T22:27:18.789Z,1028.93
2022-10-18T22:32:11.108Z,1028.87
2022-10-18T22:37:03.543Z,1028.86
2022-10-18T22:41:58.378Z,1028.84
2022-10-18T22:46:50.637Z,1028.9
2022-10-18T22:51:43.195Z,1028.93
2022-10-18T22:56:35.690Z,1028.91
2022-10-18T23:01:28.464Z,1028.98
2022-10-18T23:06:21.010Z,1028.88
2022-10-18T23:11:13.698Z,1028.91
2022-10-18T23:16:06.403Z,1028.95
2022-10-18T23:20:58.996Z,1028.93
2022-10-18T23:25:51.765Z,1028.96
2022-10-18T23:35:36.804Z,1028.9
2022-10-18T23:45:24.173Z,1028.94
2022-10-18T23:55:08.577Z,1028.95
